Time;durP1;ratioP1;P1;durP2;ratioP2;P2;SDS_P1;SDS_P2;PMS_P1;PMS_P2;Temp;Humidity;BMP_temperature;BMP_pressure;BME280_temperature;BME280_humidity;BME280_pressure;Samples;Min_cycle;Max_cycle;Signal;HPM_P1;HPM_P2
2021/10/10 00:01:48;;;;;;;44.22;23.13;;;6.60;99.90;;;;;;5054033;28;20097;-65
2021/10/10 00:04:14;;;;;;;35.78;22.25;;;6.50;99.90;;;;;;5053970;28;20107;-66
2021/10/10 00:06:40;;;;;;;37.70;21.83;;;6.40;99.90;;;;;;5052798;28;20426;-66
2021/10/10 00:09:06;;;;;;;39.53;21.77;;;6.30;99.90;;;;;;5053946;28;20482;-66
2021/10/10 00:11:32;;;;;;;39.58;21.35;;;6.20;99.90;;;;;;5053360;28;20467;-65
2021/10/10 00:13:57;;;;;;;38.20;21.42;;;6.00;99.90;;;;;;5053046;28;20380;-66
2021/10/10 00:16:23;;;;;;;36.65;22.48;;;5.90;99.90;;;;;;5054073;28;20032;-66
2021/10/10 00:18:49;;;;;;;40.28;22.55;;;5.80;99.90;;;;;;5053850;28;20031;-66
2021/10/10 00:21:15;;;;;;;37.53;22.45;;;5.70;99.90;;;;;;5053846;28;20079;-66
2021/10/10 00:23:40;;;;;;;41.33;23.02;;;5.70;99.90;;;;;;5053509;28;20032;-66
2021/10/10 00:26:06;;;;;;;42.50;23.05;;;5.60;99.90;;;;;;5053791;28;20025;-66
2021/10/10 00:28:32;;;;;;;41.25;23.75;;;5.60;99.90;;;;;;5053490;28;20032;-66
2021/10/10 00:30:57;;;;;;;42.35;24.13;;;5.60;99.90;;;;;;5053783;28;20060;-66
2021/10/10 00:33:25;;;;;;;38.42;23.63;;;5.60;99.90;;;;;;5053656;28;20059;-65
2021/10/10 00:35:51;;;;;;;41.42;24.38;;;5.50;99.90;;;;;;5053170;28;20029;-65
2021/10/10 00:38:17;;;;;;;41.65;24.67;;;5.50;99.90;;;;;;5053675;28;20364;-64
2021/10/10 00:40:42;;;;;;;45.13;25.65;;;5.50;99.90;;;;;;5053376;28;20092;-66
2021/10/10 00:43:08;;;;;;;43.45;25.25;;;5.50;99.90;;;;;;5052091;28;20056;-66
2021/10/10 00:45:34;;;;;;;40.33;25.27;;;5.40;99.90;;;;;;5053616;28;20057;-66
2021/10/10 00:48:00;;;;;;;43.83;25.17;;;5.40;99.90;;;;;;5053320;28;20033;-66
2021/10/10 00:50:27;;;;;;;41.80;24.95;;;5.40;99.90;;;;;;5053515;28;20029;-66
2021/10/10 00:52:53;;;;;;;49.35;26.30;;;5.30;99.90;;;;;;5052798;28;20396;-66
2021/10/10 00:55:21;;;;;;;44.03;24.40;;;5.30;99.90;;;;;;5053765;28;20386;-66
2021/10/10 00:57:49;;;;;;;43.72;24.05;;;5.20;99.90;;;;;;5052952;28;20021;-66
2021/10/10 01:00:15;;;;;;;43.50;24.90;;;5.20;99.90;;;;;;5054749;28;20039;-66
2021/10/10 01:02:42;;;;;;;50.22;27.13;;;5.10;99.90;;;;;;5057238;28;20455;-66
2021/10/10 01:05:08;;;;;;;50.65;26.30;;;5.10;99.90;;;;;;5056933;28;20023;-66
2021/10/10 01:07:33;;;;;;;49.60;27.73;;;5.10;99.90;;;;;;5056880;28;20025;-65
2021/10/10 01:10:00;;;;;;;51.97;28.45;;;5.10;99.90;;;;;;5056572;28;20536;-66
2021/10/10 01:12:26;;;;;;;51.05;29.65;;;5.10;99.90;;;;;;5056907;28;20053;-66
2021/10/10 01:14:52;;;;;;;49.92;27.50;;;5.20;99.90;;;;;;5056946;28;20029;-66
2021/10/10 01:17:17;;;;;;;48.53;26.75;;;5.20;99.90;;;;;;5056736;28;20036;-66
2021/10/10 01:19:45;;;;;;;55.80;29.50;;;5.10;99.90;;;;;;5055455;28;20023;-65
2021/10/10 01:22:11;;;;;;;51.80;28.90;;;5.20;99.90;;;;;;5056909;28;20028;-66
2021/10/10 01:24:37;;;;;;;50.50;28.42;;;5.20;99.90;;;;;;5056869;28;20033;-66
2021/10/10 01:27:02;;;;;;;47.22;28.10;;;5.10;99.90;;;;;;5056564;28;20029;-66
2021/10/10 01:29:28;;;;;;;52.22;29.13;;;5.10;99.90;;;;;;5056770;28;20035;-66
2021/10/10 01:31:54;;;;;;;49.67;28.67;;;5.10;99.90;;;;;;5055497;28;20373;-65
2021/10/10 01:34:19;;;;;;;46.17;27.27;;;5.00;99.90;;;;;;5056324;28;20128;-65
2021/10/10 01:36:45;;;;;;;47.97;27.88;;;5.00;99.90;;;;;;5056606;28;20025;-65
2021/10/10 01:39:11;;;;;;;54.30;28.48;;;4.90;99.90;;;;;;5056313;28;20057;-65
2021/10/10 01:41:36;;;;;;;46.08;26.67;;;4.90;99.90;;;;;;5056288;28;20056;-65
2021/10/10 01:44:02;;;;;;;50.60;29.00;;;4.80;99.90;;;;;;5055959;28;20048;-65
2021/10/10 01:46:28;;;;;;;52.83;30.13;;;4.80;99.90;;;;;;5055859;28;20060;-65
2021/10/10 01:48:53;;;;;;;52.95;29.00;;;4.80;99.90;;;;;;5056103;28;20033;-64
2021/10/10 01:51:19;;;;;;;51.60;28.08;;;4.80;99.90;;;;;;5056112;28;20063;-65
2021/10/10 01:53:44;;;;;;;45.92;26.80;;;4.70;99.90;;;;;;5055947;28;20509;-65
2021/10/10 01:56:10;;;;;;;45.60;26.90;;;4.70;99.90;;;;;;5037838;28;20463;-66
2021/10/10 01:58:36;;;;;;;52.30;30.45;;;4.60;99.90;;;;;;5054760;28;20025;-65
2021/10/10 02:01:01;;;;;;;51.67;28.50;;;4.60;99.90;;;;;;5056178;28;20488;-65
2021/10/10 02:03:27;;;;;;;52.67;28.75;;;4.60;99.90;;;;;;5055545;28;20029;-65
2021/10/10 02:05:53;;;;;;;50.28;28.92;;;4.60;99.90;;;;;;5054623;28;20021;-66
2021/10/10 02:08:18;;;;;;;48.13;27.80;;;4.50;99.90;;;;;;5055757;28;20079;-64
2021/10/10 02:10:44;;;;;;;46.58;26.80;;;4.50;99.90;;;;;;5055868;28;20455;-65
2021/10/10 02:13:10;;;;;;;48.97;28.58;;;4.50;99.90;;;;;;5055247;28;20045;-66
2021/10/10 02:15:38;;;;;;;51.13;28.58;;;4.50;99.90;;;;;;5055355;28;20086;-65
2021/10/10 02:18:05;;;;;;;43.45;25.70;;;4.40;99.90;;;;;;5055524;28;20442;-65
2021/10/10 02:20:31;;;;;;;47.55;26.90;;;4.40;99.90;;;;;;5055827;28;20359;-66
2021/10/10 02:22:56;;;;;;;48.63;26.58;;;4.30;99.90;;;;;;5055790;28;20025;-65
2021/10/10 02:25:22;;;;;;;48.22;26.63;;;4.30;99.90;;;;;;5055715;28;20033;-64
2021/10/10 02:27:48;;;;;;;44.83;26.75;;;4.20;99.90;;;;;;5053883;28;20044;-65
2021/10/10 02:30:14;;;;;;;50.35;28.15;;;4.20;99.90;;;;;;5055578;28;20028;-66
2021/10/10 02:32:39;;;;;;;55.15;30.65;;;4.20;99.90;;;;;;5055505;28;20025;-66
2021/10/10 02:35:05;;;;;;;59.60;31.83;;;4.20;99.90;;;;;;5054954;28;20439;-65
2021/10/10 02:37:31;;;;;;;54.78;30.00;;;4.20;99.90;;;;;;5055444;28;20029;-65
2021/10/10 02:39:56;;;;;;;51.13;29.08;;;4.20;99.90;;;;;;5055409;28;20467;-65
2021/10/10 02:42:22;;;;;;;48.28;29.02;;;4.20;99.90;;;;;;5055084;28;20021;-65
2021/10/10 02:44:47;;;;;;;54.13;31.60;;;4.20;99.90;;;;;;5055363;28;20083;-65
2021/10/10 02:47:14;;;;;;;57.20;31.27;;;4.20;99.90;;;;;;5055046;28;20029;-64
2021/10/10 02:49:40;;;;;;;53.97;29.52;;;4.20;99.90;;;;;;5055217;28;20079;-65
2021/10/10 02:52:06;;;;;;;58.53;30.90;;;4.20;99.90;;;;;;5055102;28;20039;-65
2021/10/10 02:54:31;;;;;;;58.90;32.10;;;4.30;99.90;;;;;;5054781;28;20421;-64
2021/10/10 02:56:57;;;;;;;60.95;32.65;;;4.20;99.90;;;;;;5054813;28;20024;-65
2021/10/10 02:59:22;;;;;;;62.00;32.03;;;4.20;99.90;;;;;;5055035;28;20375;-65
2021/10/10 03:01:47;;;;;;;63.50;33.55;;;4.20;99.90;;;;;;5054443;28;20107;-65
2021/10/10 03:04:13;;;;;;;58.55;31.58;;;4.20;99.90;;;;;;5054693;28;20029;-65
2021/10/10 03:06:38;;;;;;;55.50;31.58;;;4.10;99.90;;;;;;5054888;28;20499;-64
2021/10/10 03:09:04;;;;;;;63.38;33.78;;;4.10;99.90;;;;;;5054861;28;20474;-65
2021/10/10 03:11:30;;;;;;;57.92;31.77;;;4.00;99.90;;;;;;5054272;28;20036;-65
2021/10/10 03:13:55;;;;;;;61.72;34.85;;;4.00;99.90;;;;;;5054180;28;20459;-64
2021/10/10 03:16:21;;;;;;;62.90;32.72;;;4.00;99.90;;;;;;5054711;28;20043;-64
2021/10/10 03:18:46;;;;;;;67.20;33.65;;;4.00;99.90;;;;;;5054697;28;20044;-65
2021/10/10 03:21:12;;;;;;;53.97;31.85;;;4.00;99.90;;;;;;5054657;28;20032;-65
2021/10/10 03:23:37;;;;;;;64.03;33.75;;;3.90;99.90;;;;;;5054104;28;20041;-64
2021/10/10 03:26:03;;;;;;;60.35;31.70;;;3.90;99.90;;;;;;5054561;28;20454;-65
2021/10/10 03:28:29;;;;;;;64.03;33.17;;;3.90;99.90;;;;;;5053025;28;20029;-65
2021/10/10 03:30:54;;;;;;;60.55;33.65;;;3.90;99.90;;;;;;5054202;28;20025;-65
2021/10/10 03:33:20;;;;;;;55.20;31.25;;;3.90;99.90;;;;;;5054367;28;20482;-64
2021/10/10 03:35:45;;;;;;;57.28;30.38;;;3.90;99.90;;;;;;5053866;28;20029;-65
2021/10/10 03:38:11;;;;;;;54.35;30.08;;;3.80;99.90;;;;;;5054100;28;20101;-65
2021/10/10 03:40:36;;;;;;;52.42;30.88;;;3.80;99.90;;;;;;5054089;28;20083;-64
2021/10/10 03:43:02;;;;;;;60.40;31.63;;;3.70;99.90;;;;;;5053732;28;20025;-64
2021/10/10 03:45:28;;;;;;;56.13;32.33;;;3.70;99.90;;;;;;5053983;28;20569;-65
2021/10/10 03:47:53;;;;;;;57.95;32.25;;;3.70;99.90;;;;;;5053957;28;20040;-64
2021/10/10 03:50:19;;;;;;;54.88;31.42;;;3.60;99.90;;;;;;5054176;28;20056;-65
2021/10/10 03:52:45;;;;;;;63.13;33.97;;;3.60;99.90;;;;;;5053756;28;20021;-65
2021/10/10 03:55:42;;;;;;;54.05;30.55;;;3.60;99.90;;;;;;5053898;28;20538;-65
2021/10/10 03:57:57;;;;;;;64.35;33.38;;;3.60;99.90;;;;;;5053449;28;20029;-64
2021/10/10 04:00:24;;;;;;;62.45;33.10;;;3.60;99.90;;;;;;5053766;28;20045;-64
2021/10/10 04:02:50;;;;;;;63.65;34.92;;;3.50;99.90;;;;;;5053744;28;20022;-65
2021/10/10 04:05:35;;;;;;;57.38;34.35;;;3.60;99.90;;;;;;5053963;28;20021;-64
2021/10/10 04:08:02;;;;;;;65.57;35.20;;;3.50;99.90;;;;;;5052670;28;20020;-65
2021/10/10 04:10:29;;;;;;;74.00;39.55;;;3.60;99.90;;;;;;5053901;28;20420;-66
2021/10/10 04:12:55;;;;;;;74.28;38.17;;;3.70;99.90;;;;;;5053519;28;20124;-65
2021/10/10 04:15:21;;;;;;;83.78;43.03;;;3.80;99.90;;;;;;5053857;28;20025;-64
2021/10/10 04:17:47;;;;;;;74.40;39.30;;;3.80;99.90;;;;;;5053586;28;20074;-64
2021/10/10 04:20:15;;;;;;;90.18;42.70;;;3.70;99.90;;;;;;5053850;28;20021;-65
2021/10/10 04:22:42;;;;;;;77.32;40.67;;;3.80;99.90;;;;;;5053827;28;20075;-64
2021/10/10 04:25:08;;;;;;;81.57;40.78;;;3.80;99.90;;;;;;5053562;28;20532;-65
2021/10/10 04:27:35;;;;;;;79.00;42.25;;;3.80;99.90;;;;;;5053474;28;20075;-66
2021/10/10 04:30:03;;;;;;;89.32;44.95;;;3.80;99.90;;;;;;5054313;28;20037;-66
2021/10/10 04:32:28;;;;;;;82.20;42.50;;;3.80;99.90;;;;;;5053451;28;20074;-65
2021/10/10 04:34:54;;;;;;;97.45;45.92;;;3.80;99.90;;;;;;5054117;28;20033;-65
2021/10/10 04:37:19;;;;;;;90.05;46.90;;;3.80;99.90;;;;;;5057496;28;20025;-65
2021/10/10 04:39:45;;;;;;;81.93;42.25;;;3.80;99.90;;;;;;5057715;28;20459;-65
2021/10/10 04:42:10;;;;;;;88.75;44.05;;;3.70;99.90;;;;;;5057696;28;20456;-64
2021/10/10 04:44:37;;;;;;;85.45;43.70;;;3.70;99.90;;;;;;5055879;28;20029;-66
2021/10/10 04:47:04;;;;;;;77.65;43.67;;;3.60;99.90;;;;;;5057564;28;20051;-65
2021/10/10 04:49:30;;;;;;;79.07;41.13;;;3.60;99.90;;;;;;5057271;28;20048;-65
2021/10/10 04:51:55;;;;;;;83.53;45.22;;;3.60;99.90;;;;;;5057193;28;20051;-64
2021/10/10 04:54:21;;;;;;;82.15;43.15;;;3.70;99.90;;;;;;5057330;28;20083;-65
2021/10/10 04:56:46;;;;;;;93.80;47.65;;;3.60;99.90;;;;;;5057419;28;20056;-65
2021/10/10 04:59:12;;;;;;;90.60;47.15;;;3.70;99.90;;;;;;5057150;28;20071;-65
2021/10/10 05:01:37;;;;;;;96.25;47.78;;;3.80;99.90;;;;;;5057155;28;20025;-65
2021/10/10 05:04:03;;;;;;;100.65;48.47;;;3.70;99.90;;;;;;5057298;28;20522;-66
2021/10/10 05:06:29;;;;;;;90.47;44.97;;;3.80;99.90;;;;;;5056996;28;20470;-65
2021/10/10 05:08:54;;;;;;;95.10;47.00;;;3.70;99.90;;;;;;5056946;28;20539;-66
2021/10/10 05:11:20;;;;;;;93.40;46.88;;;3.70;99.90;;;;;;5056893;28;20536;-66
2021/10/10 05:13:45;;;;;;;93.38;48.53;;;3.70;99.90;;;;;;5056508;28;20084;-66
2021/10/10 05:16:11;;;;;;;90.20;45.60;;;3.70;99.90;;;;;;5057054;28;20028;-65
2021/10/10 05:18:36;;;;;;;92.57;44.40;;;3.60;99.90;;;;;;5056700;28;20032;-66
2021/10/10 05:21:02;;;;;;;81.32;43.90;;;3.60;99.90;;;;;;5056649;28;20070;-65
2021/10/10 05:23:27;;;;;;;89.68;45.30;;;3.60;99.90;;;;;;5056869;28;20044;-66
2021/10/10 05:25:54;;;;;;;78.15;42.92;;;3.50;99.90;;;;;;5056884;28;20375;-66
2021/10/10 05:28:19;;;;;;;76.47;41.38;;;3.50;99.90;;;;;;5056817;28;20017;-65
2021/10/10 05:30:45;;;;;;;82.28;42.35;;;3.40;99.90;;;;;;5056777;28;20032;-66
2021/10/10 05:33:11;;;;;;;81.72;43.65;;;3.40;99.90;;;;;;5056651;28;20466;-65
2021/10/10 05:35:37;;;;;;;83.50;44.10;;;3.40;99.90;;;;;;5054944;28;20019;-65
2021/10/10 05:38:02;;;;;;;74.70;40.45;;;3.40;99.90;;;;;;5056091;28;20021;-65
2021/10/10 05:40:28;;;;;;;71.53;39.08;;;3.40;99.90;;;;;;5056325;28;20078;-65
2021/10/10 05:42:53;;;;;;;75.82;41.45;;;3.40;99.90;;;;;;5056554;28;20021;-65
2021/10/10 05:45:19;;;;;;;76.50;39.42;;;3.30;99.90;;;;;;5055755;28;20104;-65
2021/10/10 05:47:45;;;;;;;78.32;40.70;;;3.30;99.90;;;;;;5055560;28;20025;-65
2021/10/10 05:50:10;;;;;;;75.97;39.33;;;3.30;99.90;;;;;;5056429;28;20114;-65
2021/10/10 05:52:36;;;;;;;71.20;39.30;;;3.30;99.90;;;;;;5056377;28;20021;-65
2021/10/10 05:55:06;;;;;;;80.72;41.78;;;3.30;99.90;;;;;;5056220;28;20024;-65
2021/10/10 05:57:42;;;;;;;71.25;39.47;;;3.20;99.90;;;;;;5056262;28;20059;-65
2021/10/10 06:00:09;;;;;;;72.40;40.42;;;3.30;99.90;;;;;;5055954;28;20348;-65
2021/10/10 06:02:34;;;;;;;72.80;40.97;;;3.30;99.90;;;;;;5055873;28;20060;-65
2021/10/10 06:05:00;;;;;;;70.97;40.20;;;3.30;99.90;;;;;;5055571;28;20056;-66
2021/10/10 06:07:25;;;;;;;69.45;39.70;;;3.40;99.90;;;;;;5056065;28;20032;-66
2021/10/10 06:09:51;;;;;;;92.85;45.28;;;3.50;99.90;;;;;;5055765;28;20033;-65
2021/10/10 06:12:16;;;;;;;89.53;45.63;;;3.60;99.90;;;;;;5056041;28;20037;-66
2021/10/10 06:14:42;;;;;;;83.75;44.70;;;3.80;99.90;;;;;;5055157;28;20372;-65
2021/10/10 06:17:07;;;;;;;84.18;43.85;;;4.00;99.90;;;;;;5055303;28;20108;-65
2021/10/10 06:19:35;;;;;;;75.43;42.95;;;4.10;99.90;;;;;;5055824;28;20025;-65
2021/10/10 06:22:00;;;;;;;75.85;41.70;;;4.20;99.90;;;;;;5055832;28;20037;-66
2021/10/10 06:24:26;;;;;;;69.97;37.65;;;4.40;99.90;;;;;;5054222;28;20426;-66
2021/10/10 06:26:52;;;;;;;64.85;34.25;;;4.90;99.90;;;;;;5055391;28;20063;-66
2021/10/10 06:29:17;;;;;;;62.28;35.67;;;5.20;99.90;;;;;;5055130;28;20475;-66
2021/10/10 06:31:43;;;;;;;51.10;30.30;;;5.50;99.90;;;;;;5055624;28;20025;-66
2021/10/10 06:34:09;;;;;;;50.75;30.95;;;5.40;99.90;;;;;;5056033;28;20386;-66
2021/10/10 06:36:34;;;;;;;48.20;29.65;;;5.30;99.90;;;;;;5055512;28;20028;-66
2021/10/10 06:39:00;;;;;;;46.35;29.88;;;5.40;99.90;;;;;;5055497;28;20025;-66
2021/10/10 06:41:25;;;;;;;48.13;28.90;;;5.70;99.90;;;;;;5055150;28;20104;-66
2021/10/10 06:43:51;;;;;;;41.58;26.25;;;6.40;99.90;;;;;;5055397;28;20482;-67
2021/10/10 06:46:17;;;;;;;40.78;24.38;;;7.90;99.90;;;;;;5055336;28;20553;-67
2021/10/10 06:48:42;;;;;;;32.45;21.15;;;9.20;99.90;;;;;;5054981;28;20037;-67
2021/10/10 06:51:08;;;;;;;30.70;20.60;;;10.20;99.90;;;;;;5054693;28;20099;-66
2021/10/10 06:53:34;;;;;;;32.28;20.60;;;10.90;99.90;;;;;;5054546;28;20061;-66
2021/10/10 06:56:04;;;;;;;32.88;20.08;;;11.70;99.90;;;;;;5054891;28;20021;-66
2021/10/10 06:58:30;;;;;;;30.00;19.45;;;12.10;99.90;;;;;;5054264;28;20495;-67
2021/10/10 07:00:56;;;;;;;26.02;18.58;;;12.80;99.90;;;;;;5053740;28;20053;-66
2021/10/10 07:03:21;;;;;;;28.17;19.75;;;13.40;99.90;;;;;;5055000;28;20071;-66
2021/10/10 07:05:47;;;;;;;25.73;18.42;;;13.60;99.90;;;;;;5054992;28;20029;-66
2021/10/10 07:08:12;;;;;;;26.70;19.17;;;13.60;99.90;;;;;;5054906;28;20033;-66
2021/10/10 07:10:38;;;;;;;23.42;18.10;;;14.60;99.90;;;;;;5054897;28;20541;-67
2021/10/10 07:13:03;;;;;;;23.55;18.25;;;15.50;99.90;;;;;;5054411;28;20059;-66
2021/10/10 07:15:29;;;;;;;24.45;17.77;;;14.70;99.90;;;;;;5054795;28;20099;-66
2021/10/10 07:18:00;;;;;;;24.48;18.45;;;15.20;99.90;;;;;;5053318;28;20025;-66
2021/10/10 07:20:44;;;;;;;20.13;16.20;;;14.50;99.90;;;;;;5054695;28;20025;-67
2021/10/10 07:25:51;;;;;;;24.13;17.38;;;14.90;99.90;;;;;;5153456;27;20915;-66
2021/10/10 07:28:17;;;;;;;23.40;16.83;;;15.10;99.90;;;;;;5153147;27;20023;-67
2021/10/10 07:30:45;;;;;;;24.20;17.73;;;15.00;99.90;;;;;;5152538;27;20027;-66
2021/10/10 07:33:10;;;;;;;25.50;17.00;;;15.20;99.90;;;;;;5133983;27;20425;-66
2021/10/10 07:35:36;;;;;;;22.77;16.70;;;15.20;99.90;;;;;;5134536;27;20023;-66
2021/10/10 07:38:01;;;;;;;20.83;16.40;;;14.30;99.90;;;;;;5152657;27;20027;-66
2021/10/10 07:40:27;;;;;;;21.85;16.17;;;14.10;99.90;;;;;;5152611;27;20019;-65
2021/10/10 07:42:53;;;;;;;21.38;16.50;;;13.90;99.90;;;;;;5152922;27;20357;-65
2021/10/10 07:45:21;;;;;;;22.98;15.85;;;14.10;99.90;;;;;;5134082;27;20479;-66
2021/10/10 07:47:49;;;;;;;26.05;16.65;;;14.10;99.90;;;;;;5152714;27;20063;-66
2021/10/10 07:50:15;;;;;;;22.25;16.67;;;14.60;99.90;;;;;;5134626;27;20448;-66
2021/10/10 07:52:41;;;;;;;21.73;16.48;;;14.70;99.90;;;;;;5152681;27;20023;-66
2021/10/10 07:55:08;;;;;;;20.35;16.77;;;15.00;99.90;;;;;;5152616;27;20029;-67
2021/10/10 07:57:33;;;;;;;21.00;16.67;;;14.90;99.90;;;;;;5152262;27;20076;-66
2021/10/10 07:59:59;;;;;;;19.60;15.38;;;15.40;99.90;;;;;;5152291;27;20027;-65
2021/10/10 08:02:26;;;;;;;21.55;17.10;;;15.40;99.90;;;;;;5152150;27;20019;-66
2021/10/10 08:04:52;;;;;;;21.10;16.30;;;15.10;99.90;;;;;;5134054;27;20019;-67
2021/10/10 08:07:18;;;;;;;22.40;16.75;;;14.40;99.90;;;;;;5133813;27;20026;-67
2021/10/10 08:09:43;;;;;;;20.75;15.60;;;14.70;99.90;;;;;;5133374;27;20102;-67
2021/10/10 08:12:09;;;;;;;22.17;16.60;;;14.80;99.90;;;;;;5152310;27;20044;-67
2021/10/10 08:14:35;;;;;;;19.67;15.75;;;15.10;99.90;;;;;;5151983;27;20056;-67
2021/10/10 08:17:00;;;;;;;24.23;15.95;;;15.10;99.90;;;;;;5152226;27;20027;-67
2021/10/10 08:19:26;;;;;;;23.23;16.15;;;14.80;99.90;;;;;;5151895;27;20023;-67
2021/10/10 08:21:51;;;;;;;22.73;16.00;;;15.00;99.90;;;;;;5151856;27;20023;-67
2021/10/10 08:24:19;;;;;;;23.95;16.10;;;14.90;99.90;;;;;;5151602;27;20051;-67
2021/10/10 08:26:45;;;;;;;24.13;16.70;;;14.60;99.90;;;;;;5133257;27;20460;-67
2021/10/10 08:29:11;;;;;;;23.48;16.13;;;14.90;99.90;;;;;;5152479;27;20046;-67
2021/10/10 08:31:36;;;;;;;23.48;15.98;;;16.00;99.90;;;;;;5151966;27;20023;-67
2021/10/10 08:34:02;;;;;;;23.02;16.13;;;16.20;99.90;;;;;;5151878;27;20027;-67
2021/10/10 08:36:27;;;;;;;23.77;16.23;;;16.60;99.90;;;;;;5142011;27;20055;-67
2021/10/10 08:38:53;;;;;;;19.55;15.55;;;17.10;99.90;;;;;;5137684;27;20487;-67
2021/10/10 08:41:23;;;;;;;21.73;15.90;;;17.50;99.90;;;;;;5137689;27;20023;-67
2021/10/10 08:43:49;;;;;;;25.95;17.20;;;16.60;99.90;;;;;;5137808;27;20023;-66
2021/10/10 08:46:23;;;;;;;27.02;17.08;;;16.00;99.90;;;;;;5119750;27;20019;-67
2021/10/10 08:48:49;;;;;;;21.98;17.15;;;15.40;99.90;;;;;;5137781;27;20072;-67
2021/10/10 08:51:15;;;;;;;20.63;16.23;;;15.30;99.90;;;;;;5118744;27;20449;-67
2021/10/10 08:53:40;;;;;;;22.60;16.63;;;15.60;99.90;;;;;;5119077;27;20055;-67
2021/10/10 08:56:07;;;;;;;20.20;15.30;;;15.80;99.90;;;;;;5119565;27;20024;-66
2021/10/10 08:58:37;;;;;;;19.58;14.93;;;15.80;99.90;;;;;;5118746;27;20026;-67
2021/10/10 09:01:12;;;;;;;21.90;15.73;;;16.40;99.90;;;;;;5137580;27;20074;-67
2021/10/10 09:03:38;;;;;;;24.45;15.75;;;16.50;99.90;;;;;;5137108;27;20092;-67
2021/10/10 09:06:03;;;;;;;20.40;15.80;;;17.20;99.90;;;;;;5137470;27;20398;-67
2021/10/10 09:08:29;;;;;;;22.50;16.27;;;17.90;99.90;;;;;;5137446;27;20520;-67
2021/10/10 09:10:58;;;;;;;21.45;15.10;;;17.50;99.90;;;;;;5137030;27;20019;-67
2021/10/10 09:13:32;;;;;;;20.63;14.38;;;18.00;99.90;;;;;;5137345;27;20064;-67
2021/10/10 09:15:58;;;;;;;19.67;13.00;;;17.60;99.90;;;;;;5137201;27;20030;-67
2021/10/10 09:18:41;;;;;;;18.63;12.85;;;17.30;99.90;;;;;;5136925;27;20023;-67
2021/10/10 09:21:16;;;;;;;16.73;12.95;;;16.60;99.90;;;;;;5137441;27;20015;-67
2021/10/10 09:23:46;;;;;;;19.45;13.80;;;16.70;99.90;;;;;;5118030;27;20527;-67
2021/10/10 09:26:12;;;;;;;21.33;13.88;;;16.40;99.90;;;;;;5118650;27;20054;-67
2021/10/10 09:28:39;;;;;;;23.25;12.80;;;16.80;99.90;;;;;;5136931;27;20080;-67
2021/10/10 09:31:06;;;;;;;17.48;12.55;;;17.50;99.90;;;;;;5136511;27;20019;-67
2021/10/10 09:36:20;;;;;;;20.33;12.20;;;18.00;99.80;;;;;;5073651;27;20466;-67
2021/10/10 09:38:53;;;;;;;17.80;11.88;;;17.70;99.90;;;;;;5070992;28;20029;-67
2021/10/10 09:41:51;;;;;;;18.23;11.32;;;17.90;99.50;;;;;;5070818;28;20021;-67
2021/10/10 09:44:10;;;;;;;16.35;11.68;;;18.80;99.40;;;;;;5070621;28;20573;-67
2021/10/10 09:46:40;;;;;;;16.85;12.82;;;19.10;98.80;;;;;;5069368;28;20047;-67
2021/10/10 09:49:28;;;;;;;18.38;13.43;;;19.40;98.60;;;;;;5070561;28;20474;-67
2021/10/10 09:51:55;;;;;;;19.30;13.27;;;19.80;97.60;;;;;;5071115;28;20451;-67
2021/10/10 09:54:22;;;;;;;19.83;13.80;;;20.10;96.50;;;;;;5071015;28;20021;-67
2021/10/10 09:57:05;;;;;;;17.08;14.25;;;20.40;96.70;;;;;;5070679;28;20364;-67
2021/10/10 09:59:31;;;;;;;20.38;12.85;;;19.50;98.10;;;;;;5070675;28;20044;-67
2021/10/10 10:01:56;;;;;;;17.75;12.55;;;19.90;97.50;;;;;;5070908;28;20060;-67
2021/10/10 10:04:22;;;;;;;17.42;12.57;;;19.10;97.20;;;;;;5069693;28;20563;-67
2021/10/10 10:06:50;;;;;;;19.73;12.70;;;18.70;97.50;;;;;;5070185;28;20029;-67
2021/10/10 10:09:15;;;;;;;20.83;12.25;;;18.70;96.70;;;;;;5069268;28;20027;-67
2021/10/10 10:11:44;;;;;;;19.35;12.68;;;18.30;97.20;;;;;;5070381;28;20033;-67
2021/10/10 10:14:12;;;;;;;20.48;13.10;;;17.80;98.50;;;;;;5070557;28;20146;-67
2021/10/10 10:16:41;;;;;;;20.63;12.93;;;17.70;99.20;;;;;;5068827;28;20478;-67
2021/10/10 10:19:10;;;;;;;21.48;13.35;;;17.60;99.70;;;;;;5070535;28;20027;-67
2021/10/10 10:21:36;;;;;;;17.90;13.07;;;17.70;99.50;;;;;;5069989;28;20021;-67
2021/10/10 10:24:03;;;;;;;19.67;13.38;;;17.60;99.10;;;;;;5070481;28;20071;-67
2021/10/10 10:26:32;;;;;;;23.25;13.75;;;17.40;99.90;;;;;;5070061;28;20021;-67
2021/10/10 10:28:59;;;;;;;16.85;12.27;;;17.50;99.30;;;;;;5070064;28;20029;-67
2021/10/10 10:31:26;;;;;;;19.75;13.40;;;17.80;98.50;;;;;;5068597;28;20021;-67
2021/10/10 10:33:54;;;;;;;18.48;12.50;;;17.90;99.90;;;;;;5069749;28;20028;-68
2021/10/10 10:36:59;;;;;;;18.02;11.93;;;18.20;98.30;;;;;;5069908;28;20024;-67
2021/10/10 10:39:48;;;;;;;19.55;12.60;;;17.80;99.10;;;;;;5069500;28;20432;-67
2021/10/10 10:42:35;;;;;;;20.23;11.93;;;17.70;99.20;;;;;;5070067;28;20017;-67
2021/10/10 10:45:01;;;;;;;21.38;12.18;;;18.00;99.90;;;;;;5069488;28;20462;-67
2021/10/10 10:47:41;;;;;;;20.90;12.77;;;18.20;98.90;;;;;;5057150;28;20036;-67
2021/10/10 10:50:14;;;;;;;18.17;11.93;;;18.00;98.50;;;;;;5056725;28;20390;-67
2021/10/10 10:52:42;;;;;;;18.88;11.95;;;18.30;99.30;;;;;;5056705;28;20021;-67
2021/10/10 10:55:22;;;;;;;18.13;11.93;;;18.50;99.00;;;;;;5038395;28;20540;-67
2021/10/10 10:57:53;;;;;;;17.33;12.13;;;18.80;97.70;;;;;;5056306;28;20052;-67
2021/10/10 11:00:38;;;;;;;17.38;11.63;;;19.20;97.00;;;;;;5056611;28;20100;-67
2021/10/10 11:03:26;;;;;;;25.10;12.00;;;18.60;97.70;;;;;;5056509;28;20486;-67
2021/10/10 11:05:57;;;;;;;18.80;12.18;;;18.00;99.20;;;;;;5055992;28;20040;-67
2021/10/10 11:11:13;;;;;;;18.65;12.15;;;17.80;99.90;;;;;;5077637;27;20369;-66
2021/10/10 11:13:42;;;;;;;17.08;11.38;;;17.80;99.90;;;;;;5071401;28;20032;-66
2021/10/10 11:16:20;;;;;;;21.38;11.48;;;17.90;99.80;;;;;;5071303;28;20024;-65
2021/10/10 11:18:55;;;;;;;18.45;11.60;;;18.00;99.90;;;;;;5071279;28;20021;-67
2021/10/10 11:21:23;;;;;;;23.92;11.00;;;18.10;99.70;;;;;;5071223;28;20064;-67
2021/10/10 11:23:52;;;;;;;16.30;10.43;;;17.70;98.80;;;;;;5071158;28;20025;-67
2021/10/10 11:26:19;;;;;;;17.60;11.65;;;17.80;99.90;;;;;;5070811;28;20090;-67
2021/10/10 11:28:48;;;;;;;18.00;11.38;;;18.20;99.10;;;;;;5070686;28;20036;-67
2021/10/10 11:31:26;;;;;;;19.50;11.10;;;18.50;99.90;;;;;;5069760;28;20078;-67
2021/10/10 11:33:57;;;;;;;18.27;11.18;;;18.40;99.50;;;;;;5071224;28;20044;-67
2021/10/10 11:36:52;;;;;;;16.02;10.88;;;18.40;99.50;;;;;;5070393;28;20016;-67
2021/10/10 11:39:23;;;;;;;17.05;10.80;;;18.20;99.90;;;;;;5070210;28;20033;-67
2021/10/10 11:41:54;;;;;;;16.63;10.80;;;18.20;99.10;;;;;;5070809;28;20023;-67
2021/10/10 11:44:23;;;;;;;14.02;9.65;;;18.30;99.10;;;;;;5069545;28;20048;-67
2021/10/10 11:46:54;;;;;;;14.68;9.60;;;18.30;98.60;;;;;;5070762;28;20025;-67
2021/10/10 11:50:05;;;;;;;19.52;10.68;;;18.10;97.50;;;;;;5069151;28;20032;-67
2021/10/10 11:55:57;;;;;;;15.32;10.35;;;18.20;99.80;;;;;;5112219;27;20853;-66
2021/10/10 11:57:55;;;;;;;17.67;11.23;;;18.30;98.70;;;;;;5111215;28;20031;-67
2021/10/10 12:00:26;;;;;;;16.48;10.57;;;18.50;99.30;;;;;;5111879;28;20469;-66
2021/10/10 12:02:52;;;;;;;16.75;10.63;;;18.30;98.80;;;;;;5111825;28;20028;-66
2021/10/10 12:05:19;;;;;;;16.40;10.65;;;18.30;99.60;;;;;;5111760;28;20085;-66
2021/10/10 12:07:46;;;;;;;14.90;10.48;;;18.20;98.30;;;;;;5111736;28;20454;-66
2021/10/10 12:10:18;;;;;;;14.35;10.23;;;18.10;99.40;;;;;;5110527;28;20024;-66
2021/10/10 12:12:44;;;;;;;16.25;10.43;;;17.80;99.00;;;;;;5110941;28;20051;-67
2021/10/10 12:15:10;;;;;;;16.15;10.82;;;18.10;99.90;;;;;;5111252;28;20047;-66
2021/10/10 12:17:48;;;;;;;14.23;10.57;;;18.00;99.40;;;;;;5111515;28;20024;-67
2021/10/10 12:23:00;;;;;;;16.40;10.48;;;18.00;99.80;;;;;;5112096;27;20355;-67
2021/10/10 12:25:44;;;;;;;18.38;11.45;;;18.10;99.80;;;;;;5111600;28;20366;-67
2021/10/10 12:28:15;;;;;;;16.00;10.48;;;18.10;99.90;;;;;;5111820;28;20453;-66
2021/10/10 12:30:51;;;;;;;18.02;9.98;;;18.10;98.60;;;;;;5111763;28;20420;-67
2021/10/10 12:33:34;;;;;;;16.00;11.38;;;18.20;99.20;;;;;;5111809;28;20456;-66
2021/10/10 12:36:06;;;;;;;13.13;9.65;;;18.30;98.10;;;;;;5111774;28;20039;-67
2021/10/10 12:38:51;;;;;;;13.60;9.20;;;18.30;98.60;;;;;;5111425;28;20032;-67
2021/10/10 12:44:14;;;;;;;18.80;10.32;;;18.20;98.90;;;;;;5071645;28;20879;-67
2021/10/10 12:46:56;;;;;;;16.25;10.27;;;18.50;99.20;;;;;;5071107;28;20497;-66
2021/10/10 12:49:38;;;;;;;17.88;10.15;;;18.50;98.30;;;;;;5071209;28;20071;-66
2021/10/10 12:52:08;;;;;;;14.77;8.73;;;18.50;98.50;;;;;;5070977;28;20053;-66
2021/10/10 12:54:39;;;;;;;16.45;9.15;;;18.30;95.40;;;;;;5071166;28;20024;-66